Terminal Aerodrome Forecast
Issued by NWS

Home | Current Version | Previous Version | Text Only | Print | Product List | Glossary On
Versions: 1 2 3 4 5 6 7 8 9 10 11 12 13 14 15 16 17 18 19 20 21 22 23 24 25 26 27 28 29 30 31 32 33 34 35 36 37 38 39
000
FTUS44 KLIX 191100
TAFHDC
TAF
KHDC 191120Z 1912/2012 VRB03KT P6SM BKN120
     FM191600 10007KT P6SM BKN050
     FM192000 12009KT P6SM SCT060
     FM200000 13005KT P6SM FEW100=

USA.gov is the U.S. government's official web portal to all federal, state and local government web resources and services.